createdAt,value
2019-04-29T00:02:20.881Z,92.80
2019-04-29T00:05:25.154Z,92.80
2019-04-29T00:08:29.414Z,92.80
2019-04-29T00:11:33.760Z,92.80
2019-04-29T00:14:39.404Z,92.70
2019-04-29T00:17:56.866Z,92.80
2019-04-29T00:21:01.199Z,92.90
2019-04-29T00:24:05.882Z,92.80
2019-04-29T00:27:10.513Z,92.80
2019-04-29T00:30:20.379Z,92.80
2019-04-29T00:33:24.611Z,92.80
2019-04-29T00:36:32.733Z,92.80
2019-04-29T00:39:54.967Z,92.90
2019-04-29T00:43:12.426Z,92.90
2019-04-29T00:46:16.892Z,93.00
2019-04-29T00:49:21.213Z,92.90
2019-04-29T00:52:25.548Z,92.80
2019-04-29T00:55:32.730Z,92.80
2019-04-29T00:58:36.987Z,92.80
2019-04-29T01:01:43.146Z,92.80
2019-04-29T01:04:47.388Z,92.90
2019-04-29T01:07:52.186Z,92.90
2019-04-29T01:10:56.646Z,92.90
2019-04-29T01:14:00.995Z,92.90
2019-04-29T01:17:05.258Z,92.80
2019-04-29T01:20:09.847Z,92.70
2019-04-29T01:23:14.030Z,92.70
2019-04-29T01:26:33.752Z,92.80
2019-04-29T01:29:38.074Z,92.90
2019-04-29T01:32:42.500Z,93.10
2019-04-29T01:35:48.347Z,92.70
2019-04-29T01:38:54.171Z,92.80
2019-04-29T01:42:29.358Z,92.80
2019-04-29T01:45:33.730Z,92.70
2019-04-29T01:48:37.900Z,92.70
2019-04-29T01:51:42.101Z,92.80
2019-04-29T01:54:46.280Z,92.70
2019-04-29T01:57:50.573Z,92.70
2019-04-29T02:00:54.820Z,92.60
2019-04-29T02:04:00.045Z,92.70
2019-04-29T02:07:04.450Z,92.70
2019-04-29T02:10:16.046Z,92.60
2019-04-29T02:13:20.307Z,92.70
2019-04-29T02:16:24.682Z,92.80
2019-04-29T02:19:29.009Z,92.60
2019-04-29T02:22:38.560Z,92.70
2019-04-29T02:25:44.241Z,92.60
2019-04-29T02:28:49.020Z,92.60
2019-04-29T02:31:53.264Z,92.60
2019-04-29T02:34:57.574Z,92.70
2019-04-29T02:38:02.295Z,92.70
2019-04-29T02:41:28.634Z,92.60
2019-04-29T02:44:32.966Z,92.70
2019-04-29T02:47:37.349Z,92.80
2019-04-29T02:50:41.672Z,92.70
2019-04-29T02:53:46.029Z,92.70
2019-04-29T02:57:12.349Z,92.70
2019-04-29T03:00:25.870Z,92.70
2019-04-29T03:03:49.265Z,92.80
2019-04-29T03:06:53.643Z,92.70
2019-04-29T03:09:57.884Z,92.70
2019-04-29T03:13:02.123Z,92.90
2019-04-29T03:16:06.443Z,92.70
2019-04-29T03:19:17.151Z,92.70
2019-04-29T03:22:21.585Z,92.70
2019-04-29T03:25:25.939Z,92.70
2019-04-29T03:28:30.326Z,92.70
2019-04-29T03:31:38.987Z,92.70
2019-04-29T03:34:40.683Z,92.60
2019-04-29T03:37:44.967Z,92.70
2019-04-29T03:40:49.215Z,92.60
2019-04-29T03:43:53.569Z,92.60
2019-04-29T03:46:57.870Z,92.70
2019-04-29T03:50:02.175Z,93.00
2019-04-29T03:53:06.432Z,92.60
2019-04-29T03:56:10.711Z,92.70
2019-04-29T03:59:14.886Z,92.70
2019-04-29T04:02:34.391Z,92.60
2019-04-29T04:05:44.935Z,92.70
2019-04-29T04:09:05.365Z,92.60
2019-04-29T04:12:02.392Z,92.70
2019-04-29T04:15:07.401Z,92.70
2019-04-29T04:18:31.632Z,92.80
2019-04-29T04:21:36.005Z,92.80
2019-04-29T04:24:40.265Z,92.60
2019-04-29T04:27:44.730Z,92.70
2019-04-29T04:30:49.052Z,92.60
2019-04-29T04:33:53.416Z,92.80
2019-04-29T04:37:00.220Z,92.80
2019-04-29T04:40:04.654Z,93.10
2019-04-29T04:43:08.923Z,92.80
2019-04-29T04:46:13.336Z,92.70
2019-04-29T04:49:18.788Z,92.70
2019-04-29T04:52:23.158Z,92.70
2019-04-29T04:55:30.040Z,92.90
2019-04-29T04:58:34.391Z,93.30
2019-04-29T05:01:38.923Z,92.80
2019-04-29T05:04:43.330Z,92.90
2019-04-29T05:07:47.657Z,92.90
2019-04-29T05:10:52.004Z,92.90
2019-04-29T05:13:56.298Z,92.90
2019-04-29T05:17:00.598Z,92.90
2019-04-29T05:20:05.374Z,92.90
2019-04-29T05:23:09.678Z,92.90
2019-04-29T05:26:13.942Z,92.80
2019-04-29T05:29:18.315Z,92.90
2019-04-29T05:32:22.655Z,92.90
2019-04-29T05:35:32.954Z,93.00
2019-04-29T05:38:41.082Z,93.00
2019-04-29T05:41:45.491Z,93.10
2019-04-29T05:44:59.544Z,93.10
2019-04-29T05:48:09.299Z,93.10
2019-04-29T05:51:44.610Z,93.20
2019-04-29T05:54:48.954Z,93.60
2019-04-29T05:57:55.846Z,93.20
2019-04-29T06:01:09.083Z,93.20
2019-04-29T06:04:16.426Z,93.10
2019-04-29T06:07:21.660Z,93.20
2019-04-29T06:10:25.278Z,93.20
2019-04-29T06:13:29.556Z,93.20
2019-04-29T06:16:33.751Z,93.20
2019-04-29T06:19:39.257Z,93.20
2019-04-29T06:22:43.943Z,93.20
2019-04-29T06:25:48.247Z,93.20
2019-04-29T06:28:52.567Z,93.20
2019-04-29T06:31:56.767Z,93.20
2019-04-29T06:35:01.048Z,93.50
2019-04-29T06:38:05.490Z,93.20
2019-04-29T06:41:10.919Z,93.30
2019-04-29T06:44:16.740Z,93.50
2019-04-29T06:47:21.281Z,93.40
2019-04-29T06:50:25.690Z,93.40
2019-04-29T06:53:29.960Z,93.30
2019-04-29T06:56:34.546Z,93.30
2019-04-29T06:59:38.816Z,93.30
2019-04-29T07:02:45.526Z,93.40
2019-04-29T07:05:51.465Z,94.40
2019-04-29T07:08:55.066Z,94.90
2019-04-29T07:12:01.546Z,95.00
2019-04-29T07:15:07.752Z,95.40
2019-04-29T07:18:12.716Z,95.40
2019-04-29T07:21:17.190Z,95.20
2019-04-29T07:24:21.528Z,94.90
2019-04-29T07:27:25.823Z,94.60
2019-04-29T07:30:30.160Z,94.50
2019-04-29T07:33:34.433Z,94.30
2019-04-29T07:36:38.633Z,94.20
2019-04-29T07:39:42.999Z,94.10
2019-04-29T07:42:47.515Z,94.00
2019-04-29T07:46:07.097Z,93.90
2019-04-29T07:49:12.855Z,93.90
2019-04-29T07:52:17.239Z,93.70
2019-04-29T07:55:21.499Z,93.70
2019-04-29T07:58:27.299Z,93.60
2019-04-29T08:01:31.846Z,93.40
2019-04-29T08:04:40.437Z,93.40
2019-04-29T08:07:44.916Z,93.30
2019-04-29T08:10:55.981Z,93.20
2019-04-29T08:13:55.415Z,93.20
2019-04-29T08:16:59.899Z,93.10
2019-04-29T08:20:05.291Z,93.10
2019-04-29T08:23:10.315Z,93.10
2019-04-29T08:26:14.495Z,93.00
2019-04-29T08:29:18.736Z,93.00
2019-04-29T08:32:22.983Z,92.90
2019-04-29T08:35:27.199Z,92.70
2019-04-29T08:38:31.530Z,92.80
2019-04-29T08:41:35.887Z,92.60
2019-04-29T08:44:59.847Z,92.60
2019-04-29T08:48:04.583Z,92.60
2019-04-29T08:51:08.767Z,92.30
2019-04-29T08:54:16.136Z,92.40
2019-04-29T08:57:19.027Z,92.20
2019-04-29T09:00:23.410Z,92.30
2019-04-29T09:03:40.269Z,92.30
2019-04-29T09:06:37.642Z,92.30
2019-04-29T09:09:41.892Z,92.30
2019-04-29T09:12:46.247Z,91.90
2019-04-29T09:15:50.514Z,91.90
2019-04-29T09:18:55.406Z,91.80
2019-04-29T09:22:02.554Z,91.90
2019-04-29T09:25:30.738Z,91.80
2019-04-29T09:28:34.922Z,91.70
2019-04-29T09:31:39.298Z,91.70
2019-04-29T09:34:43.552Z,91.60
2019-04-29T09:37:47.912Z,91.70
2019-04-29T09:40:59.509Z,91.70
2019-04-29T09:44:12.509Z,91.70
2019-04-29T09:47:17.074Z,91.50
2019-04-29T09:50:21.462Z,91.70
2019-04-29T09:53:25.795Z,91.40
2019-04-29T09:56:30.174Z,91.40
2019-04-29T09:59:39.522Z,91.30
2019-04-29T10:02:51.890Z,91.00
2019-04-29T10:06:06.289Z,91.10
2019-04-29T10:09:15.073Z,91.20
2019-04-29T10:12:19.332Z,91.30
2019-04-29T10:15:31.632Z,91.30
2019-04-29T10:18:40.922Z,91.20
2019-04-29T10:21:46.180Z,91.30
2019-04-29T10:24:50.527Z,91.20
2019-04-29T10:27:54.961Z,91.10
2019-04-29T10:30:59.316Z,91.10
2019-04-29T10:34:03.659Z,91.10
2019-04-29T10:37:09.003Z,91.20
2019-04-29T10:40:37.242Z,91.10
2019-04-29T10:43:53.738Z,91.40
2019-04-29T10:47:17.690Z,91.40
2019-04-29T10:50:31.177Z,91.00
2019-04-29T10:53:35.886Z,91.30
2019-04-29T10:56:41.097Z,91.30
2019-04-29T10:59:50.205Z,91.20
2019-04-29T11:02:54.014Z,91.50
2019-04-29T11:06:01.800Z,91.10
2019-04-29T11:09:46.242Z,91.00
2019-04-29T11:12:50.272Z,91.00
2019-04-29T11:15:54.955Z,90.80
2019-04-29T11:19:03.077Z,90.80
2019-04-29T11:22:05.671Z,91.00
2019-04-29T11:25:32.357Z,91.10
2019-04-29T11:28:37.418Z,91.10
2019-04-29T11:31:42.087Z,91.10
2019-04-29T11:35:11.254Z,91.10
2019-04-29T11:38:17.063Z,90.90
2019-04-29T11:41:21.704Z,91.10
2019-04-29T11:44:27.703Z,91.30
2019-04-29T11:47:32.572Z,90.90
2019-04-29T11:50:50.130Z,91.00
2019-04-29T11:53:53.063Z,90.90
2019-04-29T11:56:58.966Z,90.90
2019-04-29T12:00:25.247Z,90.90
2019-04-29T12:03:37.297Z,91.00
2019-04-29T12:06:40.932Z,91.00
2019-04-29T12:09:45.496Z,91.10
2019-04-29T12:12:49.965Z,91.20
2019-04-29T12:16:24.010Z,91.20
2019-04-29T12:19:28.973Z,91.10
2019-04-29T12:22:47.172Z,91.20
2019-04-29T12:25:39.369Z,91.20
2019-04-29T12:28:44.544Z,91.20
2019-04-29T12:32:06.414Z,91.30
2019-04-29T12:35:33.711Z,91.20
2019-04-29T12:38:55.828Z,91.30
2019-04-29T12:42:20.200Z,91.30
2019-04-29T12:45:28.348Z,91.40
2019-04-29T12:48:32.634Z,91.40
2019-04-29T12:51:36.923Z,91.40
2019-04-29T12:54:41.974Z,91.50
2019-04-29T12:57:47.306Z,91.50
2019-04-29T13:00:59.938Z,91.60
2019-04-29T13:04:05.370Z,91.60
2019-04-29T13:07:16.752Z,91.60
2019-04-29T13:10:26.351Z,91.70
2019-04-29T13:13:30.846Z,91.60
2019-04-29T13:16:42.486Z,91.60
2019-04-29T13:20:02.044Z,91.70
2019-04-29T13:23:16.904Z,91.70
2019-04-29T13:26:08.067Z,91.70
2019-04-29T13:29:26.247Z,91.80
2019-04-29T13:32:19.311Z,91.80
2019-04-29T13:35:23.888Z,91.90
2019-04-29T13:38:28.963Z,92.00
2019-04-29T13:41:34.137Z,92.00
2019-04-29T13:44:42.548Z,92.10
2019-04-29T13:47:55.533Z,92.20
2019-04-29T13:51:04.413Z,92.20
2019-04-29T13:54:08.758Z,92.20
2019-04-29T13:57:16.042Z,92.30
2019-04-29T14:00:51.458Z,92.30
2019-04-29T14:04:24.218Z,92.30
2019-04-29T14:07:25.015Z,92.20
2019-04-29T14:10:29.334Z,92.30
2019-04-29T14:13:33.671Z,92.20
2019-04-29T14:16:38.129Z,92.20
2019-04-29T14:19:42.722Z,92.20
2019-04-29T14:22:47.198Z,92.10
2019-04-29T14:25:51.571Z,92.10
2019-04-29T14:28:55.897Z,92.20
2019-04-29T14:32:01.283Z,92.10
2019-04-29T14:35:28.013Z,92.10
2019-04-29T14:38:36.045Z,92.10
2019-04-29T14:41:40.455Z,92.50
2019-04-29T14:45:02.264Z,92.60
2019-04-29T14:48:14.471Z,92.50
2019-04-29T14:51:18.699Z,92.40
2019-04-29T14:54:23.080Z,92.50
2019-04-29T14:57:27.362Z,92.50
2019-04-29T15:00:49.496Z,92.40
2019-04-29T15:03:56.583Z,92.40
2019-04-29T15:07:01.021Z,92.40
2019-04-29T15:10:07.663Z,92.30
2019-04-29T15:13:21.269Z,92.60
2019-04-29T15:16:35.012Z,92.40
2019-04-29T15:19:56.183Z,92.40
2019-04-29T15:23:01.152Z,92.60
2019-04-29T15:26:05.664Z,92.30
2019-04-29T15:29:09.849Z,92.30
2019-04-29T15:32:17.778Z,92.30
2019-04-29T15:35:24.287Z,92.30
2019-04-29T15:38:26.635Z,92.30
2019-04-29T15:41:33.306Z,92.60
2019-04-29T15:44:37.649Z,92.20
2019-04-29T15:47:45.808Z,92.20
2019-04-29T15:50:48.274Z,92.20
2019-04-29T15:53:55.850Z,92.20
2019-04-29T15:57:03.746Z,92.20
2019-04-29T16:00:20.479Z,92.30
2019-04-29T16:03:17.847Z,92.30
2019-04-29T16:06:48.204Z,92.30
2019-04-29T16:10:20.723Z,92.30
2019-04-29T16:13:27.780Z,92.30
2019-04-29T16:16:31.383Z,92.20
2019-04-29T16:19:35.727Z,92.20
2019-04-29T16:22:39.970Z,92.40
2019-04-29T16:25:46.471Z,92.10
2019-04-29T16:28:51.902Z,92.10
2019-04-29T16:32:02.174Z,92.10
2019-04-29T16:35:03.272Z,92.10
2019-04-29T16:38:11.671Z,92.10
2019-04-29T16:41:30.579Z,92.20
2019-04-29T16:44:36.389Z,92.20
2019-04-29T16:47:47.550Z,92.20
2019-04-29T16:50:47.020Z,92.10
2019-04-29T16:53:51.523Z,92.20
2019-04-29T16:56:55.851Z,92.20
2019-04-29T17:00:00.361Z,92.20
2019-04-29T17:03:04.690Z,92.20
2019-04-29T17:06:09.064Z,92.20
2019-04-29T17:09:42.781Z,92.20
2019-04-29T17:12:51.526Z,92.20
2019-04-29T17:15:56.942Z,92.20
2019-04-29T17:19:01.313Z,92.10
2019-04-29T17:25:16.148Z,92.00
2019-04-29T17:28:29.242Z,92.10
2019-04-29T17:31:57.853Z,92.00
2019-04-29T17:35:02.687Z,92.10
2019-04-29T17:35:16.794Z,92.00
2019-04-29T17:38:09.523Z,91.90
2019-04-29T17:41:22.633Z,92.00
2019-04-29T17:44:46.588Z,92.10
2019-04-29T17:48:00.336Z,92.10
2019-04-29T17:51:07.159Z,92.10
2019-04-29T17:54:13.418Z,92.10
2019-04-29T17:57:33.315Z,92.10
2019-04-29T18:01:00.494Z,92.20
2019-04-29T18:04:22.748Z,92.30
2019-04-29T18:07:40.550Z,92.30
2019-04-29T18:10:48.200Z,92.40
2019-04-29T18:13:57.030Z,92.90
2019-04-29T18:17:01.414Z,92.80
2019-04-29T18:20:37.306Z,92.70
2019-04-29T18:24:05.003Z,92.70
2019-04-29T18:27:15.757Z,92.60
2019-04-29T18:30:33.261Z,92.50
2019-04-29T18:33:30.301Z,92.50
2019-04-29T18:36:35.140Z,92.40
2019-04-29T18:39:40.466Z,92.40
2019-04-29T18:42:48.465Z,92.30
2019-04-29T18:45:56.760Z,92.30
2019-04-29T18:49:03.107Z,92.30
2019-04-29T18:52:07.688Z,92.30
2019-04-29T18:55:11.807Z,92.30
2019-04-29T18:58:16.379Z,92.40
2019-04-29T19:01:24.135Z,92.30
2019-04-29T19:04:38.331Z,92.30
2019-04-29T19:07:54.390Z,92.30
2019-04-29T19:10:51.036Z,92.40
2019-04-29T19:13:56.777Z,92.50
2019-04-29T19:17:01.487Z,92.60
2019-04-29T19:20:08.705Z,92.60
2019-04-29T19:23:16.128Z,92.60
2019-04-29T19:26:22.309Z,92.60
2019-04-29T19:29:24.856Z,92.60
2019-04-29T19:32:29.183Z,92.60
2019-04-29T19:35:38.274Z,93.60
2019-04-29T19:38:43.410Z,94.50
2019-04-29T19:41:50.518Z,94.80
2019-04-29T19:44:51.783Z,95.50
2019-04-29T19:47:56.168Z,95.70
2019-04-29T19:51:14.775Z,95.90
2019-04-29T19:54:06.715Z,96.00
2019-04-29T19:57:11.120Z,96.50
2019-04-29T20:00:17.814Z,96.20
2019-04-29T20:03:26.580Z,96.50
2019-04-29T20:06:30.308Z,96.40
2019-04-29T20:09:37.281Z,96.50
2019-04-29T20:12:40.308Z,96.70
2019-04-29T20:15:57.249Z,96.60
2019-04-29T20:19:19.818Z,96.50
2019-04-29T20:22:20.375Z,96.50
2019-04-29T20:25:30.883Z,96.60
2019-04-29T20:28:32.759Z,96.70
2019-04-29T20:31:38.967Z,96.90
2019-04-29T20:34:43.470Z,97.10
2019-04-29T20:37:55.384Z,97.20
2019-04-29T20:40:55.463Z,97.00
2019-04-29T20:44:00.948Z,97.00
2019-04-29T20:47:19.617Z,97.00
2019-04-29T20:50:14.017Z,97.00
2019-04-29T20:53:30.774Z,96.80
2019-04-29T20:56:35.203Z,96.70
2019-04-29T20:59:42.129Z,96.80
2019-04-29T21:02:46.374Z,96.60
2019-04-29T21:05:54.916Z,96.60
2019-04-29T21:08:58.685Z,96.60
2019-04-29T21:12:20.289Z,96.80
2019-04-29T21:15:29.075Z,96.80
2019-04-29T21:18:35.715Z,96.80
2019-04-29T21:21:41.922Z,96.90
2019-04-29T21:24:49.413Z,96.90
2019-04-29T21:27:52.619Z,97.00
2019-04-29T21:30:58.075Z,96.90
2019-04-29T21:34:02.377Z,96.80
2019-04-29T21:37:25.856Z,96.60
2019-04-29T21:40:36.357Z,96.60
2019-04-29T21:43:41.788Z,96.60
2019-04-29T21:46:46.072Z,96.50
2019-04-29T21:49:54.588Z,96.40
2019-04-29T21:53:01.944Z,96.40
2019-04-29T21:56:09.096Z,96.60
2019-04-29T21:59:12.287Z,96.80
2019-04-29T22:02:17.589Z,97.00
2019-04-29T22:05:22.167Z,97.20
2019-04-29T22:08:29.798Z,97.50
2019-04-29T22:11:37.751Z,97.30
2019-04-29T22:14:38.287Z,97.50
2019-04-29T22:17:53.787Z,97.60
2019-04-29T22:20:48.590Z,97.60
2019-04-29T22:23:52.881Z,97.50
2019-04-29T22:27:04.119Z,97.20
2019-04-29T22:30:03.293Z,97.30
2019-04-29T22:33:07.967Z,97.40
2019-04-29T22:36:14.696Z,97.50
2019-04-29T22:39:21.782Z,97.60
2019-04-29T22:42:43.430Z,97.70
2019-04-29T22:45:47.835Z,97.60
2019-04-29T22:48:52.115Z,97.30
2019-04-29T22:51:57.254Z,97.10
2019-04-29T22:55:02.243Z,97.20
2019-04-29T22:58:09.769Z,97.10
2019-04-29T23:01:12.800Z,97.10
2019-04-29T23:04:17.999Z,97.00
2019-04-29T23:07:23.383Z,97.30
2019-04-29T23:10:28.126Z,97.00
2019-04-29T23:13:32.441Z,97.00
2019-04-29T23:16:37.039Z,96.90
2019-04-29T23:19:46.435Z,97.10
2019-04-29T23:22:56.838Z,97.20
2019-04-29T23:26:04.171Z,97.50
2019-04-29T23:29:07.326Z,97.80
2019-04-29T23:32:11.771Z,98.00
2019-04-29T23:35:16.079Z,98.00
2019-04-29T23:38:20.350Z,98.00
2019-04-29T23:41:27.704Z,97.80
2019-04-29T23:44:30.624Z,97.50
2019-04-29T23:47:35.762Z,98.00
2019-04-29T23:50:40.160Z,97.70
2019-04-29T23:53:45.297Z,97.90
2019-04-29T23:57:07.320Z,97.90
